Time,TemperatureF,DewpointF,PressureIn,WindDirection,WindDirectionDegrees,WindSpeedMPH,WindSpeedGustMPH,Humidity,HourlyPrecipIn,Conditions,Clouds,dailyrainin,SoftwareType,DateUTC
2013-06-27 19:00:00,-3.0,0.0,28.94,NNW,348,0.0,0.0,0,0.00,,---,0.00,VWS V14.00,2013-06-28 00:00:00,
2013-06-27 19:03:00,0.0,0.0,28.94,NNW,345,0.0,3.1,0,0.00,,---,0.00,VWS V14.00,2013-06-28 00:03:00,
2013-06-27 19:06:00,0.0,0.0,28.94,NW,315,0.0,3.1,0,0.00,,---,0.00,VWS V14.00,2013-06-28 00:06:00,
2013-06-27 19:09:00,0.0,0.0,28.94,North,350,0.0,4.0,0,0.00,,---,0.00,VWS V14.00,2013-06-28 00:09:00,
2013-06-27 19:30:00,87.4,54.0,28.97,North,353,0.0,0.0,32,0.00,,---,0.00,VWS V14.00,2013-06-28 00:30:00,
2013-06-27 19:31:00,87.3,53.8,28.97,North,0,0.0,0.0,32,0.00,,---,0.00,VWS V14.00,2013-06-28 00:31:00,
2013-06-27 19:37:00,86.7,53.4,28.94,West,271,0.0,0.0,32,0.00,,---,0.00,VWS V14.00,2013-06-28 00:37:00,
2013-06-27 19:39:00,87.4,54.0,28.97,North,353,0.0,0.0,32,0.00,,---,0.00,VWS V14.00,2013-06-28 00:39:00,
2013-06-27 19:40:00,86.7,53.4,28.94,West,271,0.0,0.0,32,0.00,,---,0.00,VWS V14.00,2013-06-28 00:40:00,
2013-06-27 19:45:00,85.5,53.1,28.94,SSW,196,0.0,0.0,33,0.00,,---,0.00,VWS V14.00,2013-06-28 00:45:00,
2013-06-27 19:46:00,84.9,52.6,28.94,SSW,196,0.0,0.0,33,0.00,,---,0.00,VWS V14.00,2013-06-28 00:46:00,
2013-06-27 19:52:00,83.1,51.1,28.97,SSW,196,0.0,0.0,33,0.00,,---,0.00,VWS V14.00,2013-06-28 00:52:00,
2013-06-27 19:58:00,82.2,51.1,28.97,SSW,196,0.0,0.0,34,0.00,,---,0.00,VWS V14.00,2013-06-28 00:58:00,
2013-06-27 20:11:00,82.0,50.9,28.97,South,172,0.0,2.7,34,0.00,,---,0.00,VWS V14.00,2013-06-28 01:11:00,
2013-06-27 20:15:00,81.7,51.4,28.97,South,172,0.0,2.7,35,0.00,,---,0.00,VWS V14.00,2013-06-28 01:15:00,
2013-06-27 20:21:00,82.0,51.7,28.97,South,172,0.0,0.0,35,0.00,,---,0.00,VWS V14.00,2013-06-28 01:21:00,
2013-06-27 20:27:00,82.4,52.0,28.97,South,172,4.0,4.0,35,0.00,,---,0.00,VWS V14.00,2013-06-28 01:27:00,
2013-06-27 20:30:00,82.4,52.0,28.97,South,170,4.0,4.0,35,0.00,,---,0.00,VWS V14.00,2013-06-28 01:30:00,
2013-06-27 20:33:00,82.2,51.9,28.94,South,185,2.2,4.0,35,0.00,,---,0.00,VWS V14.00,2013-06-28 01:33:00,
2013-06-27 20:36:00,82.0,51.7,28.94,SSE,161,0.0,4.0,35,0.00,,---,0.00,VWS V14.00,2013-06-28 01:36:00,
2013-06-27 20:43:00,82.4,52.0,28.94,SSE,161,0.0,4.0,35,0.00,,---,0.00,VWS V14.00,2013-06-28 01:43:00,
2013-06-27 20:46:00,82.6,52.2,28.94,SSE,161,0.0,0.0,35,0.00,,---,0.00,VWS V14.00,2013-06-28 01:46:00,
2013-06-27 20:52:00,82.6,52.2,28.94,SSE,161,0.0,0.0,35,0.00,,---,0.00,VWS V14.00,2013-06-28 01:52:00,
2013-06-27 20:58:00,82.2,52.6,28.94,SSE,161,0.0,0.0,36,0.00,,---,0.00,VWS V14.00,2013-06-28 01:58:00,
2013-06-27 21:04:00,82.2,52.6,28.94,SSE,161,0.0,0.0,36,0.00,,---,0.00,VWS V14.00,2013-06-28 02:04:00,
2013-06-27 21:07:00,82.0,52.5,28.94,SSE,161,0.0,0.0,36,0.00,,---,0.00,VWS V14.00,2013-06-28 02:07:00,
2013-06-27 21:14:00,81.9,52.3,28.94,SSE,161,0.0,0.0,36,0.00,,---,0.00,VWS V14.00,2013-06-28 02:14:00,
2013-06-27 21:20:00,81.7,52.2,28.97,SSE,161,0.0,0.0,36,0.00,,---,0.00,VWS V14.00,2013-06-28 02:20:00,
2013-06-27 21:26:00,81.3,51.8,28.97,SSE,161,0.0,0.0,36,0.00,,---,0.00,VWS V14.00,2013-06-28 02:26:00,
2013-06-27 21:29:00,81.1,51.7,28.97,SSE,161,0.0,0.0,36,0.00,,---,0.00,VWS V14.00,2013-06-28 02:29:00,
2013-06-27 21:32:00,81.0,51.5,28.97,SSE,161,0.0,0.0,36,0.00,,---,0.00,VWS V14.00,2013-06-28 02:32:00,
2013-06-27 21:35:00,81.0,51.5,28.97,SSE,161,0.0,0.0,36,0.00,,---,0.00,VWS V14.00,2013-06-28 02:35:00,
2013-06-27 21:38:00,81.1,51.7,28.97,SSE,161,0.0,0.0,36,0.00,,---,0.00,VWS V14.00,2013-06-28 02:38:00,
2013-06-27 21:41:00,81.3,51.8,28.97,SSE,161,0.0,0.0,36,0.00,,---,0.00,VWS V14.00,2013-06-28 02:41:00,
2013-06-27 21:47:00,81.1,51.7,28.97,SSE,161,0.0,0.0,36,0.00,,---,0.00,VWS V14.00,2013-06-28 02:47:00,
2013-06-27 21:50:00,81.0,51.5,28.97,SSE,161,0.0,0.0,36,0.00,,---,0.00,VWS V14.00,2013-06-28 02:50:00,
2013-06-27 21:53:00,81.1,51.7,28.97,SSE,161,0.0,0.0,36,0.00,,---,0.00,VWS V14.00,2013-06-28 02:53:00,
2013-06-27 21:56:00,81.3,51.8,28.97,SSE,161,0.0,0.0,36,0.00,,---,0.00,VWS V14.00,2013-06-28 02:56:00,
2013-06-27 21:59:00,81.5,52.0,28.97,SSE,161,0.0,0.0,36,0.00,,---,0.00,VWS V14.00,2013-06-28 02:59:00,
2013-06-27 22:00:00,81.5,52.0,28.97,SSE,161,0.0,0.0,36,0.00,,---,0.00,VWS V14.00,2013-06-28 03:00:00,
2013-06-27 22:02:00,81.5,52.0,28.97,SSE,161,0.0,0.0,36,0.00,,---,0.00,VWS V14.00,2013-06-28 03:02:00,
2013-06-27 22:05:00,81.3,51.8,28.97,SSE,161,0.0,0.0,36,0.00,,---,0.00,VWS V14.00,2013-06-28 03:05:00,
2013-06-27 22:08:00,81.1,51.7,28.97,SSE,161,0.0,0.0,36,0.00,,---,0.00,VWS V14.00,2013-06-28 03:08:00,
2013-06-27 22:15:00,81.0,52.3,28.97,SSE,161,0.0,0.0,37,0.00,,---,0.00,VWS V14.00,2013-06-28 03:15:00,
2013-06-27 22:21:00,81.0,53.0,28.97,SSE,161,0.0,0.0,38,0.00,,---,0.00,VWS V14.00,2013-06-28 03:21:00,
2013-06-27 22:27:00,81.0,53.7,28.97,SSE,161,0.0,0.0,39,0.00,,---,0.00,VWS V14.00,2013-06-28 03:27:00,
2013-06-27 22:30:00,81.0,54.4,28.97,SSE,161,0.0,0.0,40,0.00,,---,0.00,VWS V14.00,2013-06-28 03:30:00,
2013-06-27 22:33:00,81.0,54.4,28.97,SSE,161,0.0,0.0,40,0.00,,---,0.00,VWS V14.00,2013-06-28 03:33:00,
2013-06-27 22:36:00,81.1,54.5,28.97,SSE,161,0.0,0.0,40,0.00,,---,0.00,VWS V14.00,2013-06-28 03:36:00,
2013-06-27 22:43:00,81.1,55.2,28.97,SSE,161,0.0,0.0,41,0.00,,---,0.00,VWS V14.00,2013-06-28 03:43:00,
2013-06-27 22:45:00,81.3,55.4,28.97,SSE,161,0.0,0.0,41,0.00,,---,0.00,VWS V14.00,2013-06-28 03:45:00,
2013-06-27 22:52:00,81.3,55.4,28.97,SSE,161,0.0,0.0,41,0.00,,---,0.00,VWS V14.00,2013-06-28 03:52:00,
2013-06-27 22:55:00,81.3,55.4,28.97,SSE,161,0.0,0.0,41,0.00,,---,0.00,VWS V14.00,2013-06-28 03:55:00,
2013-06-27 23:00:00,81.1,55.2,28.97,SSE,161,0.0,0.0,41,0.00,,---,0.00,VWS V14.00,2013-06-28 04:00:00,
2013-06-27 23:01:00,81.0,55.1,28.97,SSE,161,0.0,0.0,41,0.00,,---,0.00,VWS V14.00,2013-06-28 04:01:00,
2013-06-27 23:07:00,80.8,55.6,28.97,SSE,161,0.0,0.0,42,0.00,,---,0.00,VWS V14.00,2013-06-28 04:07:00,
2013-06-27 23:13:00,80.8,56.2,28.97,SSE,161,0.0,0.0,43,0.00,,---,0.00,VWS V14.00,2013-06-28 04:13:00,
2013-06-27 23:15:00,80.8,56.2,28.97,SSE,161,0.0,0.0,43,0.00,,---,0.00,VWS V14.00,2013-06-28 04:15:00,
2013-06-27 23:19:00,81.0,56.4,28.97,SSE,161,0.0,0.0,43,0.00,,---,0.00,VWS V14.00,2013-06-28 04:19:00,
2013-06-27 23:22:00,81.1,56.5,28.97,SSE,161,0.0,0.0,43,0.00,,---,0.00,VWS V14.00,2013-06-28 04:22:00,
2013-06-27 23:25:00,81.1,56.5,28.97,SSE,161,0.0,0.0,43,0.00,,---,0.00,VWS V14.00,2013-06-28 04:25:00,
2013-06-27 23:28:00,81.3,56.7,28.97,SSE,161,0.0,0.0,43,0.00,,---,0.00,VWS V14.00,2013-06-28 04:28:00,
2013-06-27 23:30:00,81.3,56.7,28.97,SSE,161,0.0,0.0,43,0.00,,---,0.00,VWS V14.00,2013-06-28 04:30:00,
2013-06-27 23:34:00,81.3,57.3,28.97,SSE,161,0.0,0.0,44,0.00,,---,0.00,VWS V14.00,2013-06-28 04:34:00,
2013-06-27 23:37:00,81.5,57.5,28.97,SSE,161,0.0,0.0,44,0.00,,---,0.00,VWS V14.00,2013-06-28 04:37:00,
2013-06-27 23:40:00,81.5,57.5,28.97,SSE,161,0.0,0.0,44,0.00,,---,0.00,VWS V14.00,2013-06-28 04:40:00,
2013-06-27 23:43:00,81.5,57.5,28.97,SSE,161,0.0,0.0,44,0.00,,---,0.00,VWS V14.00,2013-06-28 04:43:00,
2013-06-27 23:45:00,81.5,57.5,28.97,SSE,161,0.0,0.0,44,0.00,,---,0.00,VWS V14.00,2013-06-28 04:45:00,
2013-06-27 23:46:00,81.3,56.7,28.97,SSE,161,0.0,0.0,43,0.00,,---,0.00,VWS V14.00,2013-06-28 04:46:00,
2013-06-27 23:52:00,80.8,56.9,28.97,SSE,161,0.0,0.0,44,0.00,,---,0.00,VWS V14.00,2013-06-28 04:52:00,
2013-06-27 23:55:00,80.8,56.9,28.97,SSE,161,0.0,0.0,44,0.00,,---,0.00,VWS V14.00,2013-06-28 04:55:00,
2013-06-27 23:58:00,80.8,57.5,28.97,SSE,161,0.0,0.0,45,0.00,,---,0.00,VWS V14.00,2013-06-28 04:58:00,